createdAt,value
2018-07-16T00:00:11.693Z,65.00
2018-07-16T00:02:39.385Z,65.20
2018-07-16T00:05:07.436Z,65.90
2018-07-16T00:07:35.106Z,66.00
2018-07-16T00:10:02.909Z,65.70
2018-07-16T00:12:30.553Z,65.80
2018-07-16T00:17:25.680Z,66.40
2018-07-16T00:19:53.341Z,67.30
2018-07-16T00:22:21.007Z,67.20
2018-07-16T00:24:48.664Z,67.20
2018-07-16T00:27:16.363Z,67.90
2018-07-16T00:29:44.119Z,68.10
2018-07-16T00:32:11.857Z,67.40
2018-07-16T00:34:39.497Z,67.90
2018-07-16T00:37:07.179Z,67.80
2018-07-16T00:39:34.873Z,68.10
2018-07-16T00:42:02.531Z,68.30
2018-07-16T00:44:30.261Z,69.40
2018-07-16T00:46:57.833Z,69.90
2018-07-16T00:49:25.441Z,70.20
2018-07-16T00:51:53.074Z,71.10
2018-07-16T00:54:20.715Z,71.00
2018-07-16T00:56:48.348Z,71.60
2018-07-16T00:59:15.953Z,71.80
2018-07-16T01:01:43.646Z,73.90
2018-07-16T01:04:11.273Z,73.60
2018-07-16T01:06:38.935Z,73.80
2018-07-16T01:09:06.852Z,75.00
2018-07-16T01:11:34.473Z,75.60
2018-07-16T01:14:02.164Z,76.20
2018-07-16T01:16:29.800Z,76.10
2018-07-16T01:18:57.424Z,75.70
2018-07-16T01:21:25.077Z,76.10
2018-07-16T01:23:52.685Z,75.20
2018-07-16T01:26:20.293Z,75.50
2018-07-16T01:28:47.930Z,76.20
2018-07-16T01:31:15.615Z,76.80
2018-07-16T01:36:10.841Z,78.30
2018-07-16T01:38:38.441Z,78.50
2018-07-16T01:41:06.108Z,80.00
2018-07-16T01:43:33.718Z,79.00
2018-07-16T01:46:01.366Z,80.40
2018-07-16T01:48:28.956Z,80.20
2018-07-16T01:50:56.738Z,81.20
2018-07-16T01:53:24.332Z,81.40
2018-07-16T01:55:51.976Z,82.90
2018-07-16T01:58:19.639Z,82.90
2018-07-16T02:00:54.916Z,84.30
2018-07-16T02:03:24.254Z,84.10
2018-07-16T02:05:52.137Z,84.60
2018-07-16T02:08:20.521Z,84.40
2018-07-16T02:10:48.195Z,85.20
2018-07-16T02:13:15.851Z,86.10
2018-07-16T02:15:43.469Z,87.70
2018-07-16T02:18:11.918Z,87.30
2018-07-16T02:20:39.545Z,87.30
2018-07-16T02:23:07.172Z,88.70
2018-07-16T02:25:34.829Z,87.60
2018-07-16T02:28:02.464Z,90.00
2018-07-16T02:30:30.110Z,90.00
2018-07-16T02:32:57.717Z,89.30
2018-07-16T02:35:25.357Z,90.20
2018-07-16T02:37:52.987Z,90.00
2018-07-16T02:40:20.623Z,90.60
2018-07-16T02:42:48.208Z,90.60
2018-07-16T02:45:15.849Z,91.40
2018-07-16T02:47:50.385Z,91.20
2018-07-16T02:50:18.113Z,91.90
2018-07-16T02:52:45.735Z,92.40
2018-07-16T02:55:13.419Z,92.40
2018-07-16T02:57:41.021Z,92.80
2018-07-16T03:00:08.774Z,92.90
2018-07-16T03:02:37.656Z,93.60
2018-07-16T03:05:05.850Z,93.80
2018-07-16T03:07:33.698Z,93.90
2018-07-16T03:10:01.317Z,94.70
2018-07-16T03:12:28.991Z,94.70
2018-07-16T03:14:57.059Z,94.90
2018-07-16T03:17:24.729Z,95.60
2018-07-16T03:19:52.441Z,94.60
2018-07-16T03:22:20.089Z,95.20
2018-07-16T03:24:47.765Z,95.10
2018-07-16T03:27:15.363Z,94.80
2018-07-16T03:29:43.001Z,95.00
2018-07-16T03:32:10.644Z,95.30
2018-07-16T03:34:38.264Z,96.10
2018-07-16T03:37:05.939Z,95.80
2018-07-16T03:39:33.643Z,95.70
2018-07-16T03:42:01.346Z,95.70
2018-07-16T03:44:29.123Z,95.50
2018-07-16T03:46:56.771Z,95.30
2018-07-16T03:49:24.403Z,96.20
2018-07-16T03:51:52.043Z,96.40
2018-07-16T03:54:19.709Z,96.30
2018-07-16T03:56:47.281Z,96.00
2018-07-16T03:59:14.943Z,97.30
2018-07-16T04:01:42.624Z,97.00
2018-07-16T04:06:37.809Z,96.90
2018-07-16T04:09:06.519Z,96.70
2018-07-16T04:11:34.144Z,96.90
2018-07-16T04:14:01.797Z,97.00
2018-07-16T04:16:29.420Z,97.30
2018-07-16T04:18:57.204Z,96.80
2018-07-16T04:21:24.858Z,96.50
2018-07-16T04:23:52.501Z,96.40
2018-07-16T04:26:20.157Z,95.90
2018-07-16T04:28:47.772Z,96.50
2018-07-16T04:31:15.410Z,96.90
2018-07-16T04:33:43.145Z,96.30
2018-07-16T04:36:10.828Z,96.10
2018-07-16T04:38:38.456Z,95.00
2018-07-16T04:41:06.378Z,94.20
2018-07-16T04:43:34.025Z,93.80
2018-07-16T04:46:01.701Z,94.20
2018-07-16T04:48:29.324Z,94.80
2018-07-16T04:50:56.964Z,94.70
2018-07-16T04:53:24.608Z,95.20
2018-07-16T04:58:19.785Z,96.00
2018-07-16T05:00:47.412Z,95.90
2018-07-16T05:03:15.057Z,94.70
2018-07-16T05:05:42.662Z,95.20
2018-07-16T05:08:10.306Z,95.60
2018-07-16T05:10:38.016Z,95.80
2018-07-16T05:13:06.069Z,95.50
2018-07-16T05:15:33.688Z,95.10
2018-07-16T05:18:01.395Z,95.40
2018-07-16T05:20:28.959Z,95.50
2018-07-16T05:22:56.546Z,95.50
2018-07-16T05:25:24.168Z,94.70
2018-07-16T05:27:51.782Z,94.00
2018-07-16T05:30:19.438Z,94.40
2018-07-16T05:32:47.201Z,93.90
2018-07-16T05:35:14.777Z,94.50
2018-07-16T05:37:42.397Z,93.50
2018-07-16T05:40:10.099Z,93.80
2018-07-16T05:42:37.757Z,93.30
2018-07-16T05:45:05.488Z,93.60
2018-07-16T05:47:33.108Z,93.70
2018-07-16T05:50:00.768Z,93.60
2018-07-16T05:52:28.425Z,93.40
2018-07-16T05:54:56.049Z,93.10
2018-07-16T05:57:23.664Z,93.20
2018-07-16T05:59:51.313Z,93.20
2018-07-16T06:02:18.976Z,92.80
2018-07-16T06:04:46.602Z,92.50
2018-07-16T06:07:14.242Z,92.00
2018-07-16T06:09:41.893Z,91.50
2018-07-16T06:12:09.625Z,91.20
2018-07-16T06:14:37.277Z,91.00
2018-07-16T06:17:05.007Z,90.50
2018-07-16T06:19:32.601Z,90.00
2018-07-16T06:22:00.255Z,89.60
2018-07-16T06:24:27.848Z,88.30
2018-07-16T06:26:55.471Z,87.50
2018-07-16T06:29:23.188Z,87.20
2018-07-16T06:31:50.817Z,87.20
2018-07-16T06:34:18.451Z,85.10
2018-07-16T06:36:46.084Z,84.20
2018-07-16T06:39:13.696Z,84.00
2018-07-16T06:41:41.298Z,82.00
2018-07-16T06:44:09.220Z,80.40
2018-07-16T06:46:36.847Z,79.70
2018-07-16T06:49:04.592Z,79.20
2018-07-16T06:51:32.477Z,78.10
2018-07-16T06:54:00.377Z,75.20
2018-07-16T06:56:28.032Z,74.50
2018-07-16T06:58:55.662Z,73.70
2018-07-16T07:01:23.270Z,73.40
2018-07-16T07:03:50.910Z,71.80
2018-07-16T07:06:18.554Z,72.10
2018-07-16T07:08:46.164Z,72.50
2018-07-16T07:11:13.786Z,72.30
2018-07-16T07:13:41.583Z,71.90
2018-07-16T07:16:09.272Z,70.90
2018-07-16T07:18:36.923Z,70.00
2018-07-16T07:21:04.644Z,68.90
2018-07-16T07:23:32.272Z,66.40
2018-07-16T07:25:59.953Z,64.10
2018-07-16T07:28:27.613Z,63.10
2018-07-16T07:30:55.322Z,61.00
2018-07-16T07:33:22.945Z,59.10
2018-07-16T07:35:50.610Z,59.40
2018-07-16T07:38:18.202Z,58.60
2018-07-16T07:40:45.841Z,56.30
2018-07-16T07:43:13.460Z,54.70
2018-07-16T07:45:41.102Z,51.40
2018-07-16T07:48:08.755Z,46.20
2018-07-16T07:50:36.378Z,41.70
2018-07-16T07:53:03.996Z,36.00
2018-07-16T07:55:31.944Z,32.90
2018-07-16T07:57:59.562Z,30.20
2018-07-16T08:00:27.244Z,28.00
2018-07-16T08:02:54.908Z,26.90
2018-07-16T08:05:22.546Z,26.50
2018-07-16T08:07:50.191Z,25.90
2018-07-16T08:10:17.814Z,24.90
2018-07-16T08:12:45.512Z,24.00
2018-07-16T08:15:13.178Z,23.70
2018-07-16T08:17:40.865Z,23.40
2018-07-16T08:20:08.843Z,23.70
2018-07-16T08:22:36.526Z,23.40
2018-07-16T08:25:04.440Z,22.50
2018-07-16T08:27:32.198Z,23.20
2018-07-16T08:29:59.900Z,22.80
2018-07-16T08:32:27.521Z,22.50
2018-07-16T08:34:55.207Z,22.70
2018-07-16T08:37:22.866Z,23.50
2018-07-16T08:39:50.543Z,23.50
2018-07-16T08:42:18.184Z,23.30
2018-07-16T08:44:45.838Z,23.10
2018-07-16T08:47:13.504Z,22.80
2018-07-16T08:49:41.471Z,22.40
2018-07-16T08:52:09.120Z,21.30
2018-07-16T08:54:36.876Z,20.50
2018-07-16T08:57:04.645Z,20.50
2018-07-16T08:59:32.311Z,20.80
2018-07-16T09:01:59.976Z,20.60
2018-07-16T09:04:27.601Z,20.10
2018-07-16T09:06:55.253Z,20.40
2018-07-16T09:09:22.885Z,20.90
2018-07-16T09:11:50.553Z,21.30
2018-07-16T09:14:18.240Z,21.00
2018-07-16T09:16:45.931Z,20.60
2018-07-16T09:19:13.570Z,19.90
2018-07-16T09:21:41.223Z,19.90
2018-07-16T09:24:08.916Z,20.10
2018-07-16T09:26:36.582Z,20.00
2018-07-16T09:29:04.240Z,20.20
2018-07-16T09:31:31.984Z,20.70
2018-07-16T09:33:59.839Z,20.20
2018-07-16T09:36:27.536Z,20.30
2018-07-16T09:38:55.293Z,19.70
2018-07-16T09:41:22.901Z,19.70
2018-07-16T09:43:50.621Z,20.00
2018-07-16T09:46:18.282Z,20.70
2018-07-16T09:48:45.927Z,20.30
2018-07-16T09:51:13.543Z,20.30
2018-07-16T09:53:41.189Z,19.50
2018-07-16T09:56:08.860Z,19.20
2018-07-16T09:58:36.498Z,18.40
2018-07-16T10:01:09.659Z,18.60
2018-07-16T10:03:37.285Z,18.90
2018-07-16T10:06:04.985Z,18.20
2018-07-16T10:08:32.645Z,17.50
2018-07-16T10:11:00.279Z,17.60
2018-07-16T10:13:27.917Z,18.10
2018-07-16T10:15:55.557Z,17.90
2018-07-16T10:18:23.172Z,17.70
2018-07-16T10:23:18.317Z,17.80
2018-07-16T10:25:45.952Z,18.10
2018-07-16T10:28:13.568Z,18.10
2018-07-16T10:30:41.213Z,18.30
2018-07-16T10:33:08.865Z,18.30
2018-07-16T10:35:36.484Z,18.60
2018-07-16T10:38:04.201Z,18.30
2018-07-16T10:40:31.821Z,17.70
2018-07-16T10:42:59.416Z,17.10
2018-07-16T10:45:27.042Z,17.20
2018-07-16T10:47:54.648Z,17.60
2018-07-16T10:50:22.314Z,17.70
2018-07-16T10:52:49.938Z,17.70
2018-07-16T10:55:17.629Z,17.90
2018-07-16T10:57:45.234Z,17.90
2018-07-16T11:00:12.967Z,17.90
2018-07-16T11:02:41.649Z,18.10
2018-07-16T11:05:09.299Z,17.90
2018-07-16T11:07:36.945Z,17.70
2018-07-16T11:10:04.716Z,17.80
2018-07-16T11:12:32.373Z,18.20
2018-07-16T11:15:00.113Z,18.40
2018-07-16T11:17:27.690Z,18.60
2018-07-16T11:19:55.296Z,18.70
2018-07-16T11:22:22.926Z,18.50
2018-07-16T11:24:50.620Z,18.00
2018-07-16T11:27:18.369Z,18.40
2018-07-16T11:29:46.099Z,19.00
2018-07-16T11:32:13.724Z,18.60
2018-07-16T11:34:41.397Z,18.60
2018-07-16T11:37:09.016Z,18.70
2018-07-16T11:39:36.657Z,18.50
2018-07-16T11:42:04.710Z,18.30
2018-07-16T11:44:32.636Z,18.80
2018-07-16T11:47:00.268Z,19.00
2018-07-16T11:49:27.921Z,18.70
2018-07-16T11:51:56.812Z,18.70
2018-07-16T11:54:24.423Z,18.70
2018-07-16T11:56:52.163Z,19.70
2018-07-16T11:59:20.394Z,19.70
2018-07-16T12:01:48.036Z,19.50
2018-07-16T12:04:15.645Z,19.20
2018-07-16T12:06:43.252Z,19.20
2018-07-16T12:09:10.893Z,19.30
2018-07-16T12:11:38.560Z,19.00
2018-07-16T12:14:06.192Z,19.40
2018-07-16T12:16:33.897Z,20.20
2018-07-16T12:19:01.597Z,20.20
2018-07-16T12:21:29.230Z,20.50
2018-07-16T12:23:56.892Z,20.70
2018-07-16T12:26:24.560Z,21.10
2018-07-16T12:28:52.192Z,21.50
2018-07-16T12:31:20.419Z,21.50
2018-07-16T12:33:48.096Z,21.60
2018-07-16T12:36:15.709Z,22.60
2018-07-16T12:38:43.331Z,22.90
2018-07-16T12:41:10.989Z,22.90
2018-07-16T12:43:38.653Z,23.30
2018-07-16T12:46:06.392Z,24.00
2018-07-16T12:48:34.014Z,24.00
2018-07-16T12:51:01.635Z,24.30
2018-07-16T12:53:29.282Z,24.60
2018-07-16T12:55:56.957Z,24.00
2018-07-16T12:58:24.606Z,24.30
2018-07-16T13:00:52.236Z,24.30
2018-07-16T13:03:19.880Z,24.20
2018-07-16T13:05:47.583Z,24.40
2018-07-16T13:08:15.183Z,24.30
2018-07-16T13:10:42.916Z,24.20
2018-07-16T13:13:10.550Z,24.40
2018-07-16T13:15:38.209Z,24.40
2018-07-16T13:18:05.841Z,24.10
2018-07-16T13:20:33.545Z,24.00
2018-07-16T13:23:01.264Z,23.90
2018-07-16T13:25:29.040Z,24.10
2018-07-16T13:27:56.757Z,24.40
2018-07-16T13:30:24.410Z,24.20
2018-07-16T13:32:52.119Z,24.50
2018-07-16T13:35:19.777Z,24.90
2018-07-16T13:37:47.426Z,25.00
2018-07-16T13:40:15.125Z,24.80
2018-07-16T13:42:42.967Z,24.70
2018-07-16T13:45:10.604Z,24.20
2018-07-16T13:47:38.244Z,24.50
2018-07-16T13:50:05.941Z,24.50
2018-07-16T13:52:33.619Z,24.00
2018-07-16T13:55:01.290Z,23.70
2018-07-16T13:57:28.974Z,23.90
2018-07-16T13:59:56.608Z,24.00
2018-07-16T14:02:24.277Z,23.80
2018-07-16T14:04:51.914Z,24.00
2018-07-16T14:07:19.581Z,24.10
2018-07-16T14:09:47.236Z,24.50
2018-07-16T14:12:15.030Z,24.50
2018-07-16T14:14:42.611Z,24.60
2018-07-16T14:17:10.306Z,24.70
2018-07-16T14:19:37.974Z,24.80
2018-07-16T14:22:06.246Z,24.60
2018-07-16T14:24:34.029Z,24.60
2018-07-16T14:27:01.720Z,24.50
2018-07-16T14:29:29.392Z,24.80
2018-07-16T14:31:57.043Z,24.80
2018-07-16T14:34:24.735Z,24.60
2018-07-16T14:36:52.415Z,24.20
2018-07-16T14:39:20.167Z,24.00
2018-07-16T14:41:47.808Z,23.70
2018-07-16T14:44:15.492Z,23.80
2018-07-16T14:46:43.196Z,23.90
2018-07-16T14:49:10.936Z,24.60
2018-07-16T14:51:38.612Z,23.80
2018-07-16T14:54:06.375Z,23.90
2018-07-16T14:56:33.988Z,23.90
2018-07-16T14:59:01.765Z,24.20
2018-07-16T15:01:29.476Z,24.00
2018-07-16T15:03:57.167Z,23.60
2018-07-16T15:06:24.884Z,23.90
2018-07-16T15:08:52.544Z,24.20
2018-07-16T15:11:20.228Z,24.20
2018-07-16T15:13:47.999Z,23.90
2018-07-16T15:16:15.689Z,23.80
2018-07-16T15:18:43.388Z,23.20
2018-07-16T15:21:11.468Z,23.00
2018-07-16T15:23:38.896Z,23.70
2018-07-16T15:26:06.539Z,24.00
2018-07-16T15:28:34.204Z,24.30
2018-07-16T15:31:01.869Z,24.80
2018-07-16T15:33:29.578Z,24.90
2018-07-16T15:35:57.247Z,24.80
2018-07-16T15:38:24.934Z,24.60
2018-07-16T15:40:52.741Z,24.30
2018-07-16T15:43:20.450Z,24.50
2018-07-16T15:45:48.530Z,24.20
2018-07-16T15:48:16.295Z,24.40
2018-07-16T15:50:43.926Z,24.20
2018-07-16T15:53:11.614Z,23.90
2018-07-16T15:55:39.346Z,24.10
2018-07-16T15:58:06.999Z,23.90
2018-07-16T16:00:34.790Z,24.20
2018-07-16T16:03:02.513Z,24.30
2018-07-16T16:05:30.233Z,24.60
2018-07-16T16:07:57.933Z,25.20
2018-07-16T16:10:25.671Z,25.10
2018-07-16T16:12:53.413Z,25.20
2018-07-16T16:15:21.157Z,25.30
2018-07-16T16:17:48.875Z,25.70
2018-07-16T16:20:16.546Z,25.40
2018-07-16T16:22:44.329Z,25.90
2018-07-16T16:25:12.027Z,26.00
2018-07-16T16:27:39.783Z,26.00
2018-07-16T16:30:07.530Z,25.60
2018-07-16T16:32:35.245Z,25.60
2018-07-16T16:35:03.064Z,25.70
2018-07-16T16:37:30.765Z,26.10
2018-07-16T16:39:58.525Z,26.40
2018-07-16T16:42:26.254Z,26.50
2018-07-16T16:44:53.978Z,26.50
2018-07-16T16:47:22.480Z,26.50
2018-07-16T16:49:50.170Z,26.40
2018-07-16T16:52:17.908Z,26.30
2018-07-16T16:54:45.651Z,26.60
2018-07-16T16:57:13.308Z,26.80
2018-07-16T16:59:41.169Z,26.40
2018-07-16T17:02:08.869Z,26.90
2018-07-16T17:04:36.608Z,27.10
2018-07-16T17:07:04.265Z,27.10
2018-07-16T17:14:07.754Z,27.40
2018-07-16T17:16:35.454Z,27.10
2018-07-16T17:19:03.092Z,27.70
2018-07-16T17:21:40.822Z,27.30
2018-07-16T17:24:08.765Z,27.30
2018-07-16T17:26:36.643Z,27.20
2018-07-16T17:29:04.538Z,26.80
2018-07-16T17:31:32.299Z,27.10
2018-07-16T17:34:00.100Z,27.30
2018-07-16T17:38:55.360Z,27.30
2018-07-16T17:41:23.087Z,27.40
2018-07-16T17:43:50.736Z,27.10
2018-07-16T17:46:18.404Z,27.30
2018-07-16T17:48:46.116Z,27.20
2018-07-16T17:51:14.687Z,27.20
2018-07-16T17:53:42.351Z,27.50
2018-07-16T17:56:10.111Z,27.40
2018-07-16T17:58:37.835Z,27.40
2018-07-16T18:01:05.708Z,27.40
2018-07-16T18:03:33.393Z,27.40
2018-07-16T18:06:01.145Z,27.80
2018-07-16T18:08:28.819Z,27.90
2018-07-16T18:10:57.048Z,28.20
2018-07-16T18:13:25.229Z,28.70
2018-07-16T18:15:53.012Z,28.80
2018-07-16T18:18:20.658Z,28.90
2018-07-16T18:20:48.426Z,28.80
2018-07-16T18:23:16.086Z,28.90
2018-07-16T18:25:43.792Z,28.90
2018-07-16T18:28:11.471Z,28.80
2018-07-16T18:30:39.205Z,29.00
2018-07-16T18:35:34.443Z,29.20
2018-07-16T18:38:02.088Z,29.30
2018-07-16T18:40:29.742Z,29.60
2018-07-16T18:42:57.393Z,29.80
2018-07-16T18:45:25.089Z,29.90
2018-07-16T18:47:52.784Z,30.00
2018-07-16T18:50:20.497Z,30.10
2018-07-16T18:52:48.208Z,30.30
2018-07-16T18:55:16.026Z,30.50
2018-07-16T18:57:43.671Z,30.30
2018-07-16T19:00:11.445Z,30.70
2018-07-16T19:02:39.141Z,30.60
2018-07-16T19:05:07.584Z,31.00
2018-07-16T19:07:35.286Z,30.80
2018-07-16T19:10:03.081Z,31.00
2018-07-16T19:12:30.716Z,31.10
2018-07-16T19:14:58.466Z,31.20
2018-07-16T19:17:26.124Z,31.40
2018-07-16T19:19:53.785Z,31.80
2018-07-16T19:22:21.491Z,32.00
2018-07-16T19:24:49.175Z,32.30
2018-07-16T19:27:16.858Z,32.80
2018-07-16T19:29:44.547Z,32.90
2018-07-16T19:32:12.209Z,33.60
2018-07-16T19:34:39.930Z,33.70
2018-07-16T19:39:35.181Z,34.00
2018-07-16T19:42:02.873Z,34.40
2018-07-16T19:44:30.610Z,34.90
2018-07-16T19:46:58.284Z,35.50
2018-07-16T19:49:25.959Z,35.60
2018-07-16T19:51:53.674Z,35.80
2018-07-16T19:54:21.365Z,36.00
2018-07-16T19:56:49.074Z,36.40
2018-07-16T19:59:16.780Z,36.00
2018-07-16T20:01:44.500Z,36.40
2018-07-16T20:04:12.165Z,36.70
2018-07-16T20:06:39.844Z,36.90
2018-07-16T20:09:08.469Z,37.20
2018-07-16T20:11:36.120Z,37.40
2018-07-16T20:14:09.153Z,37.70
2018-07-16T20:16:42.695Z,37.50
2018-07-16T20:19:10.737Z,37.80
2018-07-16T20:21:38.515Z,38.40
2018-07-16T20:24:06.535Z,38.50
2018-07-16T20:26:34.269Z,38.70
2018-07-16T20:29:01.997Z,38.80
2018-07-16T20:31:29.812Z,39.20
2018-07-16T20:33:57.819Z,39.50
2018-07-16T20:36:25.601Z,40.10
2018-07-16T20:38:53.241Z,40.10
2018-07-16T20:41:20.904Z,40.10
2018-07-16T20:43:48.528Z,40.60
2018-07-16T20:46:16.337Z,41.00
2018-07-16T20:48:44.128Z,41.50
2018-07-16T20:51:11.808Z,41.70
2018-07-16T20:53:39.704Z,41.60
2018-07-16T20:56:07.586Z,41.70
2018-07-16T20:58:35.382Z,42.00
2018-07-16T21:03:30.615Z,42.70
2018-07-16T21:05:58.308Z,42.70
2018-07-16T21:08:26.125Z,43.20
2018-07-16T21:10:53.895Z,43.50
2018-07-16T21:13:21.860Z,43.60
2018-07-16T21:15:49.506Z,43.70
2018-07-16T21:18:17.191Z,44.30
2018-07-16T21:20:45.157Z,44.60
2018-07-16T21:23:12.931Z,44.80
2018-07-16T21:25:40.598Z,45.10
2018-07-16T21:28:08.273Z,45.40
2018-07-16T21:30:35.972Z,45.70
2018-07-16T21:35:31.344Z,46.40
2018-07-16T21:37:59.317Z,46.80
2018-07-16T21:40:27.150Z,46.80
2018-07-16T21:42:54.803Z,47.20
2018-07-16T21:45:22.525Z,47.80
2018-07-16T21:47:50.266Z,48.30
2018-07-16T21:50:17.975Z,48.10
2018-07-16T21:52:45.657Z,48.10
2018-07-16T21:55:13.371Z,48.50
2018-07-16T21:57:41.076Z,48.70
2018-07-16T22:00:29.165Z,48.50
2018-07-16T22:02:58.978Z,48.80
2018-07-16T22:05:27.589Z,49.10
2018-07-16T22:07:56.084Z,49.60
2018-07-16T22:10:24.656Z,49.60
2018-07-16T22:12:52.463Z,49.70
2018-07-16T22:15:24.713Z,50.60
2018-07-16T22:17:53.341Z,51.00
2018-07-16T22:20:21.605Z,50.60
2018-07-16T22:22:49.617Z,51.90
2018-07-16T22:25:17.540Z,51.60
2018-07-16T22:27:45.972Z,52.00
2018-07-16T22:32:41.507Z,52.60
2018-07-16T22:35:09.452Z,53.00
2018-07-16T22:37:37.121Z,53.40
2018-07-16T22:40:05.540Z,53.70
2018-07-16T22:42:33.323Z,54.10
2018-07-16T22:45:00.970Z,54.30
2018-07-16T22:47:28.870Z,54.60
2018-07-16T22:49:56.674Z,54.50
2018-07-16T22:52:24.360Z,55.00
2018-07-16T22:54:52.453Z,55.20
2018-07-16T22:57:20.128Z,56.00
2018-07-16T22:59:47.815Z,55.90
2018-07-16T23:02:15.500Z,56.20
2018-07-16T23:04:43.123Z,56.50
2018-07-16T23:07:10.787Z,56.70
2018-07-16T23:09:38.432Z,56.60
2018-07-16T23:12:06.674Z,57.50
2018-07-16T23:14:34.375Z,57.50
2018-07-16T23:17:02.042Z,57.10
2018-07-16T23:19:29.656Z,57.90
2018-07-16T23:21:57.303Z,58.40
2018-07-16T23:24:25.074Z,58.80
2018-07-16T23:26:52.749Z,59.60
2018-07-16T23:29:20.389Z,61.10
2018-07-16T23:31:48.057Z,60.50
2018-07-16T23:34:15.785Z,61.70
2018-07-16T23:36:43.395Z,62.10
2018-07-16T23:39:12.328Z,61.30
2018-07-16T23:41:40.576Z,62.30
2018-07-16T23:44:08.360Z,63.30
2018-07-16T23:46:36.013Z,63.80
2018-07-16T23:49:03.657Z,63.20
2018-07-16T23:51:31.363Z,64.10
2018-07-16T23:53:59.006Z,63.30
2018-07-16T23:56:26.741Z,65.50
2018-07-16T23:58:54.419Z,66.70
